S/y Tatsu — MKEM9 — position and weather

sailwx.info

Track history (hours):
 
Tides and Currents Weather Stations Pressure Air Temp Water Temp Dewpoint Dewpoint Depression Visibility Wind Speed Wind Dir Waves Ship Positions

S/y Tatsu

Last reported at 2017-Jul-09 17:22 UTC. Time now 2017-Jul-27 22:33 UTC.
Position N 43°40' W 007°36'.
Warning: this ship's position is 18 days out of date.

Length 11 m.

Type: Sailing vessel. MMSI: 235071049.

Date/timePositionNaut miles runAvg speedWind from/ knotsBaromVisibWave heightAir tempDewpointWater temp
2017-Jul-09 17:22N 43°40' W 007°36'0 0.0
2017-Jul-09 16:58N 43°40' W 007°36'0 0.0
2017-Jul-09 16:22N 43°40' W 007°36'1 2.6
2017-Jul-09 16:00N 43°41' W 007°36'2 5.0
2017-Jul-09 15:30N 43°43' W 007°35'3 5.2
2017-Jul-09 14:59N 43°45' W 007°32'2 4.5
2017-Jul-09 14:30N 43°45' W 007°29'  
2017-Jul-04 10:08N 43°36' W 006°30'36 1.5
2017-Jul-03 10:14N 43°38' W 005°41'1 4.2
2017-Jul-03 09:59N 43°38' W 005°40'3 4.9
2017-Jul-03 09:28N 43°35' W 005°38'2 4.1
2017-Jul-03 09:00N 43°34' W 005°40'  
Track history (hours):
 
Tides and Currents Weather Stations Pressure Air Temp Water Temp Dewpoint Dewpoint Depression Visibility Wind Speed Wind Dir Waves Ship Positions

S/y Tatsu

Last reported at 2017-Jul-09 17:22 UTC. Time now 2017-Jul-27 22:33 UTC.
Position N 43°40' W 007°36'.
Warning: this ship's position is 18 days out of date.

Length 11 m.

Type: Sailing vessel. MMSI: 235071049.

Date/timePositionNaut miles runAvg speedWind from/ knotsBaromVisibWave heightAir tempDewpointWater temp
2017-Jul-09 17:22N 43°40' W 007°36'0 0.0
2017-Jul-09 16:58N 43°40' W 007°36'0 0.0
2017-Jul-09 16:22N 43°40' W 007°36'1 2.6
2017-Jul-09 16:00N 43°41' W 007°36'2 5.0
2017-Jul-09 15:30N 43°43' W 007°35'3 5.2
2017-Jul-09 14:59N 43°45' W 007°32'2 4.5
2017-Jul-09 14:30N 43°45' W 007°29'  
2017-Jul-04 10:08N 43°36' W 006°30'36 1.5
2017-Jul-03 10:14N 43°38' W 005°41'1 4.2
2017-Jul-03 09:59N 43°38' W 005°40'3 4.9
2017-Jul-03 09:28N 43°35' W 005°38'2 4.1
2017-Jul-03 09:00N 43°34' W 005°40'  

Dump ship's entire track history